Time;durP1;ratioP1;P1;durP2;ratioP2;P2;SDS_P1;SDS_P2;PMS_P1;PMS_P2;Temp;Humidity;BMP_temperature;BMP_pressure;BME280_temperature;BME280_humidity;BME280_pressure;Samples;Min_cycle;Max_cycle;Signal;HPM_P1;HPM_P2
2023/03/16 00:01:10;;;;;;;37.63;25.20;;;;;;;8.98;68.12;98999.09;5088239;28;20020;-31
2023/03/16 00:03:36;;;;;;;39.13;24.42;;;;;;;8.90;68.41;99004.78;5070053;28;20622;-26
2023/03/16 00:06:03;;;;;;;40.33;24.83;;;;;;;9.18;69.39;99004.84;5070068;28;20116;-26
2023/03/16 00:08:28;;;;;;;39.90;24.48;;;;;;;9.30;68.13;98996.84;5070112;28;20044;-26
2023/03/16 00:10:54;;;;;;;39.38;25.05;;;;;;;9.23;68.88;98994.31;5088211;28;20103;-27
2023/03/16 00:13:22;;;;;;;43.17;26.30;;;;;;;9.10;71.40;98983.13;5087987;28;20024;-25
2023/03/16 00:15:54;;;;;;;42.00;25.60;;;;;;;9.02;72.82;99001.06;5088165;28;20157;-26
2023/03/16 00:18:20;;;;;;;42.58;26.17;;;;;;;8.85;74.54;98994.84;5069927;28;20024;-24
2023/03/16 00:20:50;;;;;;;40.42;25.45;;;;;;;8.82;74.51;98987.34;5070002;28;20035;-26
2023/03/16 00:23:16;;;;;;;42.00;25.58;;;;;;;8.61;74.60;98978.94;5069625;28;20135;-24
2023/03/16 00:25:41;;;;;;;42.40;26.38;;;;;;;8.58;74.96;98986.53;5087678;28;20119;-24
2023/03/16 00:28:06;;;;;;;36.90;24.23;;;;;;;8.57;73.56;98987.59;5088169;28;20035;-24
2023/03/16 00:30:32;;;;;;;40.65;23.67;;;;;;;8.56;73.76;98988.63;5087891;28;20395;-26
2023/03/16 00:32:58;;;;;;;39.35;24.52;;;;;;;8.39;76.29;98986.63;5088160;28;20109;-25
2023/03/16 00:35:24;;;;;;;39.13;23.70;;;;;;;8.24;76.04;98986.31;5087451;28;20024;-28
2023/03/16 00:37:49;;;;;;;38.53;23.92;;;;;;;8.32;77.13;98991.28;5087689;28;20035;-25
2023/03/16 00:40:15;;;;;;;36.13;22.40;;;;;;;8.30;76.28;98992.53;5087494;28;20391;-27
2023/03/16 00:42:41;;;;;;;32.38;19.25;;;;;;;8.39;76.21;99012.41;5088019;28;20085;-27
2023/03/16 00:45:07;;;;;;;34.03;20.80;;;;;;;8.59;73.62;99010.25;5087918;28;20035;-25
2023/03/16 00:47:33;;;;;;;31.42;20.23;;;;;;;8.70;73.78;99000.63;5069736;28;20120;-25
2023/03/16 00:49:59;;;;;;;29.88;19.80;;;;;;;8.97;72.47;99002.78;5069540;28;20107;-25
2023/03/16 00:52:26;;;;;;;26.75;17.88;;;;;;;8.85;73.06;98995.66;5069493;28;20028;-25
2023/03/16 00:54:52;;;;;;;27.63;16.52;;;;;;;8.86;72.33;99009.75;5069381;28;20095;-25
2023/03/16 00:57:20;;;;;;;24.10;15.88;;;;;;;8.89;72.58;99005.81;5069658;28;20051;-25
2023/03/16 00:59:47;;;;;;;29.05;17.08;;;;;;;8.92;72.43;99002.69;5087534;28;20032;-26
2023/03/16 01:02:14;;;;;;;28.10;17.63;;;;;;;8.97;72.35;99024.06;5088089;28;20047;-25
2023/03/16 01:04:40;;;;;;;36.08;18.85;;;;;;;9.03;73.85;99015.16;5069630;28;20508;-26
2023/03/16 01:07:12;;;;;;;30.95;16.85;;;;;;;9.05;72.28;99016.56;5087559;28;20024;-26
2023/03/16 01:09:38;;;;;;;25.15;16.77;;;;;;;8.91;71.40;99003.72;5069405;28;20042;-25
2023/03/16 01:12:10;;;;;;;23.33;15.75;;;;;;;8.81;72.54;99002.50;5069440;28;20092;-25
2023/03/16 01:14:36;;;;;;;25.55;17.25;;;;;;;8.91;72.50;99020.50;5069564;28;20035;-27
2023/03/16 01:17:04;;;;;;;26.80;16.58;;;;;;;9.10;72.64;99023.81;5069301;28;20032;-25
2023/03/16 01:19:33;;;;;;;26.80;16.42;;;;;;;8.87;73.66;99018.53;5069254;28;20115;-26
2023/03/16 01:21:59;;;;;;;25.52;16.15;;;;;;;9.08;73.90;99020.59;5068645;28;20167;-27
2023/03/16 01:24:24;;;;;;;26.67;17.52;;;;;;;9.13;73.82;99012.69;5069202;28;20131;-25
2023/03/16 01:26:50;;;;;;;24.77;16.05;;;;;;;9.13;73.84;99022.53;5087549;28;20527;-26
2023/03/16 01:29:15;;;;;;;27.73;17.08;;;;;;;9.24;74.32;99014.53;5087277;28;20107;-27
2023/03/16 01:31:40;;;;;;;28.92;16.70;;;;;;;9.16;74.76;99022.09;5087069;28;20035;-26
2023/03/16 01:34:06;;;;;;;25.15;17.58;;;;;;;9.11;74.40;99020.09;5069026;28;20032;-26
2023/03/16 01:36:31;;;;;;;25.65;16.40;;;;;;;9.13;73.58;99018.03;5087169;28;20059;-25
2023/03/16 01:38:59;;;;;;;24.08;16.60;;;;;;;9.06;75.73;99025.34;5087298;28;20057;-27
2023/03/16 01:41:26;;;;;;;26.58;17.05;;;;;;;9.25;74.38;99016.16;5069100;28;20506;-27
2023/03/16 01:43:57;;;;;;;23.20;16.50;;;;;;;9.36;73.58;99032.34;5087009;28;20119;-26
2023/03/16 01:46:25;;;;;;;26.85;16.58;;;;;;;9.17;73.87;99024.50;5069291;28;20032;-25
2023/03/16 01:48:54;;;;;;;25.08;16.60;;;;;;;8.99;75.13;99022.81;5072539;28;20016;-25
2023/03/16 01:51:36;;;;;;;22.55;14.88;;;;;;;9.39;72.40;99032.66;5090795;28;20115;-25
2023/03/16 01:54:33;;;;;;;22.85;15.95;;;;;;;9.50;72.37;99025.69;5072714;28;20059;-28
2023/03/16 01:57:03;;;;;;;21.92;15.65;;;;;;;9.31;72.39;99025.03;5064474;28;20495;-27
2023/03/16 01:59:43;;;;;;;21.83;15.13;;;;;;;9.27;72.88;99033.72;5072195;28;20055;-25
2023/03/16 02:02:11;;;;;;;24.60;15.68;;;;;;;9.20;74.25;99026.69;5090735;28;20089;-24
2023/03/16 02:04:57;;;;;;;22.13;15.50;;;;;;;9.20;74.73;99034.66;5072234;28;20057;-27
2023/03/16 02:07:25;;;;;;;24.90;15.70;;;;;;;9.19;74.78;99022.44;5072439;28;20038;-26
2023/03/16 02:09:55;;;;;;;22.55;15.68;;;;;;;9.29;74.54;99023.66;5071685;28;20460;-30
2023/03/16 02:12:20;;;;;;;23.90;16.95;;;;;;;9.19;75.20;99041.06;5072362;28;20035;-25
2023/03/16 02:14:50;;;;;;;24.52;15.60;;;;;;;9.27;74.19;99044.38;5090801;28;20032;-26
2023/03/16 02:17:19;;;;;;;24.85;16.42;;;;;;;9.40;74.03;99062.75;5072174;28;20028;-25
2023/03/16 02:20:12;;;;;;;23.35;15.23;;;;;;;9.50;72.71;99054.13;5071941;28;20028;-31
2023/03/16 02:22:42;;;;;;;22.80;15.60;;;;;;;9.52;73.52;99058.19;5090240;28;20131;-25
2023/03/16 02:25:09;;;;;;;25.85;15.77;;;;;;;9.42;72.68;99050.00;5090244;28;20190;-25
2023/03/16 02:28:07;;;;;;;23.00;16.15;;;;;;;9.36;74.57;99049.09;5072205;28;20116;-24
2023/03/16 02:30:33;;;;;;;24.70;16.33;;;;;;;9.24;74.52;99045.66;5089919;28;20012;-25
2023/03/16 02:32:59;;;;;;;24.75;16.30;;;;;;;9.38;74.54;99047.00;5071924;28;20056;-26
2023/03/16 02:35:24;;;;;;;21.17;14.95;;;;;;;9.21;74.96;99048.78;5071819;28;20064;-26
2023/03/16 02:37:51;;;;;;;23.30;15.85;;;;;;;9.09;75.24;99054.09;5089759;28;20119;-30
2023/03/16 02:40:27;;;;;;;25.27;17.27;;;;;;;9.30;75.61;99065.19;5071753;28;20016;-26
2023/03/16 02:43:10;;;;;;;24.50;16.30;;;;;;;9.11;75.34;99067.19;5089725;28;20063;-25
2023/03/16 02:45:52;;;;;;;22.75;15.93;;;;;;;9.24;73.61;99077.59;5071867;28;20066;-26
2023/03/16 02:48:26;;;;;;;21.02;13.60;;;;;;;9.37;73.02;99084.50;5071576;28;20487;-24
2023/03/16 02:50:53;;;;;;;19.15;13.30;;;;;;;9.18;73.02;99078.53;5071499;28;20475;-27
2023/03/16 02:53:19;;;;;;;20.30;13.55;;;;;;;9.07;73.52;99077.47;5055039;28;20415;-24
2023/03/16 02:55:45;;;;;;;20.67;12.63;;;;;;;8.89;74.34;99078.44;5071135;28;20024;-28
2023/03/16 02:58:11;;;;;;;16.65;10.70;;;;;;;8.80;75.09;99079.81;5071229;28;20031;-27
2023/03/16 03:00:38;;;;;;;15.20;10.48;;;;;;;8.68;75.24;99063.03;5071403;28;20020;-24
2023/03/16 03:03:07;;;;;;;14.57;8.48;;;;;;;8.71;75.21;99079.34;5071072;28;20054;-27
2023/03/16 03:05:32;;;;;;;;;;;;;;;8.75;75.26;99075.19;5071753;28;20130;-25
2023/03/16 03:07:57;;;;;;;8.57;4.75;;;;;;;8.68;74.03;99095.75;5088957;28;20394;-24
2023/03/16 03:10:23;;;;;;;6.63;4.03;;;;;;;8.49;73.73;99059.69;5089149;28;20089;-27
2023/03/16 03:12:49;;;;;;;7.07;4.13;;;;;;;8.54;74.03;99086.38;5071019;28;20039;-24
2023/03/16 03:15:16;;;;;;;6.30;3.45;;;;;;;8.46;73.33;99087.53;5089200;28;20082;-24
2023/03/16 03:17:42;;;;;;;5.87;3.30;;;;;;;8.37;72.92;99083.56;5089102;28;20491;-24
2023/03/16 03:20:15;;;;;;;8.45;4.03;;;;;;;8.53;72.73;99082.13;5088982;28;20027;-25
2023/03/16 03:22:40;;;;;;;5.72;3.58;;;;;;;8.37;73.01;99104.81;5070199;28;20044;-25
2023/03/16 03:25:07;;;;;;;6.90;3.40;;;;;;;8.36;71.82;99077.44;5089088;28;20580;-24
2023/03/16 03:27:33;;;;;;;5.75;3.40;;;;;;;8.51;71.06;99094.81;5070946;28;20060;-28
2023/03/16 03:29:59;;;;;;;5.20;3.38;;;;;;;8.23;72.13;99098.88;5070813;28;20066;-25
2023/03/16 03:32:24;;;;;;;6.63;3.63;;;;;;;8.19;72.23;99103.03;5088655;28;20028;-25
2023/03/16 03:34:49;;;;;;;6.75;3.38;;;;;;;8.32;71.66;99113.47;5088973;28;20028;-24
2023/03/16 03:37:15;;;;;;;6.07;2.80;;;;;;;8.29;71.40;99103.28;5088409;28;20119;-24
2023/03/16 03:39:40;;;;;;;5.35;2.88;;;;;;;8.27;71.11;99100.03;5088883;28;20028;-25
2023/03/16 03:42:06;;;;;;;7.03;3.25;;;;;;;8.27;71.76;99109.88;5070535;28;20023;-26
2023/03/16 03:44:33;;;;;;;7.38;3.30;;;;;;;8.21;71.50;99106.25;5070613;28;20503;-28
2023/03/16 03:46:59;;;;;;;6.03;3.20;;;;;;;8.25;71.61;99123.38;5070310;28;20131;-25
2023/03/16 03:49:25;;;;;;;5.53;3.45;;;;;;;8.26;71.22;99103.75;5070541;28;20020;-25
2023/03/16 03:51:50;;;;;;;6.63;3.55;;;;;;;8.28;71.53;99117.63;5088242;28;20063;-24
2023/03/16 03:54:16;;;;;;;5.70;3.40;;;;;;;8.33;71.20;99128.34;5088350;28;20031;-30
2023/03/16 03:56:41;;;;;;;4.95;3.20;;;;;;;8.08;70.81;99133.81;5088797;28;20032;-25
2023/03/16 03:59:07;;;;;;;6.25;3.55;;;;;;;8.00;70.88;99107.59;5088412;28;20414;-26
2023/03/16 04:01:32;;;;;;;5.65;2.83;;;;;;;8.13;70.28;99133.97;5088319;28;20063;-24
2023/03/16 04:03:58;;;;;;;6.88;3.38;;;;;;;8.15;70.41;99139.03;5087923;28;20028;-27
2023/03/16 04:06:23;;;;;;;5.93;3.30;;;;;;;7.94;70.18;99143.00;5088402;28;20502;-25
2023/03/16 04:08:50;;;;;;;6.57;3.28;;;;;;;8.01;70.29;99147.19;5088054;28;20023;-25
2023/03/16 04:11:15;;;;;;;6.53;3.00;;;;;;;7.99;69.83;99157.22;5087856;28;20147;-25
2023/03/16 04:13:41;;;;;;;9.02;3.70;;;;;;;8.03;69.99;99169.03;5088518;28;20106;-25
2023/03/16 04:16:06;;;;;;;5.85;3.20;;;;;;;7.90;70.53;99141.81;5088076;28;20024;-25
2023/03/16 04:18:37;;;;;;;7.68;3.20;;;;;;;8.00;69.82;99160.69;5088302;28;20042;-26
2023/03/16 04:21:06;;;;;;;6.63;3.60;;;;;;;7.99;70.19;99162.53;5069757;28;20085;-25
2023/03/16 04:23:33;;;;;;;5.75;3.25;;;;;;;7.89;69.55;99169.44;5069381;28;20070;-25
2023/03/16 04:25:59;;;;;;;7.50;3.67;;;;;;;7.68;70.38;99158.19;5088005;28;20038;-26
2023/03/16 04:28:25;;;;;;;12.32;6.97;;;;;;;7.87;69.27;99159.03;5069978;28;20024;-27
2023/03/16 04:30:53;;;;;;;20.92;13.23;;;;;;;7.56;70.05;99159.97;5088162;28;20047;-25
2023/03/16 04:33:21;;;;;;;8.02;4.93;;;;;;;7.62;70.45;99165.22;5069750;28;20040;-25
2023/03/16 04:35:47;;;;;;;;;;;;;;;7.71;69.30;99179.00;5088257;28;20035;-26
2023/03/16 04:38:13;;;;;;;10.35;5.68;;;;;;;7.62;70.59;99178.50;5088027;28;19912;-24
2023/03/16 04:40:39;;;;;;;9.32;7.13;;;;;;;7.60;70.43;99169.13;5069793;28;20040;-25
2023/03/16 04:43:04;;;;;;;8.60;3.58;;;;;;;7.59;70.36;99184.22;5087841;28;20035;-27
2023/03/16 04:45:31;;;;;;;6.57;3.70;;;;;;;7.53;70.92;99163.09;5069571;28;20632;-25
2023/03/16 04:47:57;;;;;;;7.50;3.55;;;;;;;7.70;70.03;99195.13;5069274;28;20411;-29
2023/03/16 04:50:22;;;;;;;5.72;2.90;;;;;;;7.54;70.06;99205.31;5087669;28;20024;-26
2023/03/16 04:52:48;;;;;;;7.45;3.20;;;;;;;7.57;70.25;99180.19;5087930;28;20900;-25
2023/03/16 04:55:13;;;;;;;4.32;2.33;;;;;;;7.67;69.02;99203.56;5087922;28;20031;-26
2023/03/16 04:57:39;;;;;;;6.97;3.58;;;;;;;7.68;69.52;99213.94;5087489;28;20035;-25
2023/03/16 05:00:19;;;;;;;5.93;3.03;;;;;;;7.63;69.27;99196.03;5087791;28;20024;-27
2023/03/16 05:02:46;;;;;;;5.38;2.92;;;;;;;7.43;69.67;99219.31;5087452;28;20024;-26
2023/03/16 05:05:12;;;;;;;5.00;3.10;;;;;;;7.59;69.78;99225.88;5087698;28;20502;-28
2023/03/16 05:07:40;;;;;;;5.95;2.97;;;;;;;7.64;69.44;99229.50;5069274;28;20028;-30
2023/03/16 05:10:07;;;;;;;7.38;3.45;;;;;;;7.67;68.99;99230.09;5069641;28;20027;-24
2023/03/16 05:12:32;;;;;;;6.30;3.30;;;;;;;7.58;70.07;99214.47;5087796;28;20040;-25
2023/03/16 05:14:58;;;;;;;6.60;3.90;;;;;;;7.55;70.26;99230.00;5087652;28;20453;-26
2023/03/16 05:17:23;;;;;;;5.82;2.97;;;;;;;7.63;70.78;99237.69;5087360;28;20032;-26
2023/03/16 05:19:48;;;;;;;3.63;2.20;;;;;;;7.61;70.52;99253.00;5087492;28;20544;-25
2023/03/16 05:22:14;;;;;;;5.00;2.70;;;;;;;7.29;71.36;99236.38;5088752;28;20040;-25
2023/03/16 05:24:40;;;;;;;4.72;2.75;;;;;;;7.31;71.57;99255.53;5073105;28;20036;-25
2023/03/16 05:27:05;;;;;;;4.38;2.38;;;;;;;7.00;71.61;99260.66;5091329;28;20748;-25
2023/03/16 05:29:31;;;;;;;4.75;2.47;;;;;;;7.02;72.48;99257.78;5091205;28;20016;-30
2023/03/16 05:31:58;;;;;;;4.72;2.42;;;;;;;7.02;70.93;99241.88;5090830;28;20028;-25
2023/03/16 05:34:23;;;;;;;4.90;2.83;;;;;;;7.00;73.68;99260.66;5091369;28;20044;-25
2023/03/16 05:36:49;;;;;;;6.00;2.50;;;;;;;6.91;72.79;99261.97;5091205;28;20028;-27
2023/03/16 05:39:14;;;;;;;7.30;2.72;;;;;;;7.02;72.03;99271.03;5091204;28;20490;-25
2023/03/16 05:41:40;;;;;;;5.05;2.75;;;;;;;7.00;71.63;99259.84;5090803;28;20535;-24
2023/03/16 05:44:06;;;;;;;4.13;2.22;;;;;;;6.93;72.47;99275.00;5072619;28;20032;-26
2023/03/16 05:46:32;;;;;;;4.55;2.30;;;;;;;6.94;72.83;99266.81;5072462;28;20024;-24
2023/03/16 05:48:57;;;;;;;4.72;2.10;;;;;;;6.76;72.51;99248.19;5090946;28;20053;-23
2023/03/16 05:51:25;;;;;;;4.45;2.25;;;;;;;6.96;71.96;99278.00;5091104;28;20082;-26
2023/03/16 05:53:51;;;;;;;3.38;1.95;;;;;;;6.81;70.70;99267.72;5072439;28;20034;-25
2023/03/16 05:56:17;;;;;;;2.78;2.00;;;;;;;6.83;71.18;99272.81;5090878;28;20027;-25
2023/03/16 05:58:42;;;;;;;5.97;1.80;;;;;;;6.68;70.88;99283.72;5090643;28;20534;-25
2023/03/16 06:01:08;;;;;;;3.97;1.95;;;;;;;6.81;70.22;99288.13;5090459;28;20463;-25
2023/03/16 06:03:34;;;;;;;2.03;1.50;;;;;;;6.75;70.23;99287.13;5072618;28;20052;-26
2023/03/16 06:06:00;;;;;;;4.80;1.40;;;;;;;6.86;69.29;99298.06;5090662;28;20117;-24
2023/03/16 06:08:26;;;;;;;2.15;1.40;;;;;;;6.77;69.62;99297.53;5072423;28;20035;-26
2023/03/16 06:10:52;;;;;;;3.35;1.40;;;;;;;6.92;69.43;99310.47;5090454;28;20028;-24
2023/03/16 06:13:17;;;;;;;2.28;1.45;;;;;;;6.78;70.51;99315.88;5090336;28;20054;-28
2023/03/16 06:15:43;;;;;;;5.13;1.50;;;;;;;6.88;68.54;99303.97;5090182;28;20106;-28
2023/03/16 06:18:08;;;;;;;2.22;1.17;;;;;;;6.86;68.16;99311.31;5090354;28;20395;-25
2023/03/16 06:20:34;;;;;;;2.38;1.35;;;;;;;6.80;68.50;99323.56;5090450;28;20062;-25
2023/03/16 06:22:59;;;;;;;2.95;1.17;;;;;;;6.65;68.86;99326.53;5090179;28;20097;-25
2023/03/16 06:25:25;;;;;;;1.38;0.98;;;;;;;6.57;68.76;99321.47;5090199;28;20411;-25
2023/03/16 06:27:50;;;;;;;3.35;1.40;;;;;;;6.84;68.54;99330.09;5089971;28;20036;-25
2023/03/16 06:30:16;;;;;;;1.60;1.10;;;;;;;6.91;68.00;99332.72;5090101;28;20056;-26
2023/03/16 06:32:44;;;;;;;4.72;1.20;;;;;;;6.65;68.09;99307.97;5089462;28;20117;-25
2023/03/16 06:35:10;;;;;;;2.47;1.08;;;;;;;6.74;67.30;99325.25;5071978;28;20039;-25
2023/03/16 06:37:36;;;;;;;3.85;1.73;;;;;;;6.93;67.10;99343.91;5090205;28;20032;-29
2023/03/16 06:40:03;;;;;;;2.10;1.27;;;;;;;6.90;66.77;99354.94;5072076;28;20032;-26
2023/03/16 06:42:28;;;;;;;6.60;2.83;;;;;;;6.80;66.90;99340.31;5071553;28;20032;-25
2023/03/16 06:44:54;;;;;;;3.08;1.50;;;;;;;6.84;67.20;99352.13;5071464;28;20031;-24
2023/03/16 06:47:20;;;;;;;1.63;0.90;;;;;;;6.94;66.96;99353.47;5089930;28;20035;-25
2023/03/16 06:49:45;;;;;;;2.38;1.30;;;;;;;6.87;66.99;99360.69;5071358;28;20111;-26
2023/03/16 06:52:12;;;;;;;2.92;1.38;;;;;;;7.06;66.82;99362.38;5089616;28;20028;-28
2023/03/16 06:54:39;;;;;;;2.42;1.17;;;;;;;7.00;66.13;99357.94;5089678;28;20035;-26
2023/03/16 06:57:04;;;;;;;2.85;1.48;;;;;;;7.06;67.48;99357.09;5071136;28;20038;-26
2023/03/16 06:59:30;;;;;;;3.72;1.50;;;;;;;7.20;67.16;99366.59;5089760;28;20028;-24
2023/03/16 07:01:56;;;;;;;3.20;1.23;;;;;;;7.22;66.16;99375.13;5071216;28;20028;-26
2023/03/16 07:04:21;;;;;;;2.13;1.40;;;;;;;7.09;66.98;99390.31;5089646;28;20384;-25
2023/03/16 07:06:47;;;;;;;3.28;1.30;;;;;;;7.03;67.57;99386.69;5089517;28;20442;-25
2023/03/16 07:09:12;;;;;;;1.92;1.10;;;;;;;7.27;67.70;99408.16;5089335;28;20551;-26
2023/03/16 07:11:38;;;;;;;2.45;1.35;;;;;;;7.12;68.15;99401.31;5088929;28;20404;-25
2023/03/16 07:14:04;;;;;;;3.42;1.80;;;;;;;7.24;66.87;99396.94;5070640;28;20854;-28
2023/03/16 07:16:29;;;;;;;2.85;1.30;;;;;;;7.21;66.08;99408.00;5089422;28;20115;-25
2023/03/16 07:18:55;;;;;;;2.78;1.08;;;;;;;7.10;66.07;99398.06;5089482;28;20070;-26
2023/03/16 07:21:20;;;;;;;3.80;1.75;;;;;;;7.23;67.60;99413.91;5070656;28;20870;-25
2023/03/16 07:23:46;;;;;;;2.85;1.70;;;;;;;7.33;66.62;99412.59;5070312;28;20052;-26
2023/03/16 07:26:12;;;;;;;6.00;2.20;;;;;;;7.40;66.72;99424.00;5070707;28;20028;-27
2023/03/16 07:28:38;;;;;;;2.00;1.00;;;;;;;7.47;66.52;99423.97;5070550;28;20058;-29
2023/03/16 07:31:05;;;;;;;2.05;1.30;;;;;;;7.42;65.54;99445.81;5100688;28;20032;-25
2023/03/16 07:33:34;;;;;;;1.92;0.90;;;;;;;7.45;65.73;99427.63;5091102;28;20096;-25
2023/03/16 07:36:03;;;;;;;9.43;4.97;;;;;;;7.26;65.84;99425.13;5090473;28;20024;-25
2023/03/16 07:38:29;;;;;;;3.38;2.00;;;;;;;7.31;66.94;99428.72;5109286;28;20482;-25
2023/03/16 07:40:54;;;;;;;10.25;4.47;;;;;;;7.17;66.32;99443.94;5090472;28;20031;-25
2023/03/16 07:43:20;;;;;;;6.75;2.80;;;;;;;7.38;65.72;99452.59;5108779;28;20096;-25
2023/03/16 07:45:50;;;;;;;3.22;1.88;;;;;;;7.42;65.91;99454.59;5089639;28;20027;-27
2023/03/16 07:48:16;;;;;;;3.95;1.75;;;;;;;7.44;66.29;99457.03;5108958;28;20104;-26
2023/03/16 07:50:42;;;;;;;2.33;1.08;;;;;;;7.35;64.80;99432.59;5090460;28;20483;-25
2023/03/16 07:53:07;;;;;;;5.97;1.70;;;;;;;7.43;66.71;99442.13;5108798;28;20436;-28
2023/03/16 07:55:35;;;;;;;2.97;1.38;;;;;;;7.34;65.83;99446.09;5108821;28;20027;-25
2023/03/16 07:58:01;;;;;;;1.83;1.15;;;;;;;7.38;66.83;99447.28;5090241;28;20031;-26
2023/03/16 08:00:27;;;;;;;3.60;0.90;;;;;;;7.55;64.81;99443.06;5090597;28;20134;-24
2023/03/16 08:02:54;;;;;;;1.60;1.23;;;;;;;7.46;66.07;99460.28;5090450;28;20118;-25
2023/03/16 08:05:20;;;;;;;19.85;9.07;;;;;;;7.51;66.11;99463.09;5090311;28;20031;-27
2023/03/16 08:07:45;;;;;;;4.05;2.08;;;;;;;7.60;65.21;99467.16;5089984;28;20032;-25
2023/03/16 08:10:11;;;;;;;2.20;1.05;;;;;;;7.42;64.92;99469.69;5090508;28;20106;-26
2023/03/16 08:12:37;;;;;;;3.35;1.70;;;;;;;7.56;66.25;99470.41;5090591;28;20111;-24
2023/03/16 08:15:04;;;;;;;4.10;1.38;;;;;;;7.57;64.73;99466.75;5108473;28;20026;-26
2023/03/16 08:17:30;;;;;;;2.15;1.38;;;;;;;7.37;65.70;99462.38;5090307;28;20038;-29
2023/03/16 08:19:56;;;;;;;3.25;1.80;;;;;;;7.64;64.98;99463.03;5089928;28;20031;-26
2023/03/16 08:22:22;;;;;;;6.95;3.25;;;;;;;7.68;65.37;99467.91;5108239;28;20127;-26
2023/03/16 08:24:47;;;;;;;8.18;3.65;;;;;;;7.72;65.16;99459.28;5108052;28;20032;-25
2023/03/16 08:27:14;;;;;;;7.90;3.03;;;;;;;7.75;64.57;99482.75;5108425;28;20039;-26
2023/03/16 08:29:40;;;;;;;7.97;2.58;;;;;;;7.80;64.64;99482.09;5089926;28;20085;-25
2023/03/16 08:32:06;;;;;;;4.93;1.90;;;;;;;7.81;62.97;99471.28;5108178;28;20036;-25
2023/03/16 08:34:31;;;;;;;5.03;1.58;;;;;;;7.92;63.05;99480.38;5108446;28;20122;-28
2023/03/16 08:36:58;;;;;;;4.15;2.00;;;;;;;7.99;63.69;99483.81;5108067;28;20426;-25
2023/03/16 08:39:24;;;;;;;3.35;1.50;;;;;;;8.07;63.43;99480.09;5108221;28;20033;-25
2023/03/16 08:41:50;;;;;;;1.90;1.42;;;;;;;8.10;62.20;99486.81;5107984;28;20031;-27
2023/03/16 08:44:16;;;;;;;2.85;1.77;;;;;;;7.99;63.30;99470.53;5089954;28;20030;-26
2023/03/16 08:46:41;;;;;;;2.70;1.67;;;;;;;7.86;62.76;99465.31;5089783;28;20124;-25
2023/03/16 08:49:07;;;;;;;5.32;1.70;;;;;;;7.95;62.51;99479.97;5108272;28;20019;-27
2023/03/16 08:51:33;;;;;;;3.00;1.40;;;;;;;7.89;62.77;99483.50;5108171;28;20460;-29
2023/03/16 08:53:58;;;;;;;6.65;3.47;;;;;;;7.86;63.02;99481.25;5089404;28;20024;-25
2023/03/16 08:56:24;;;;;;;13.35;6.78;;;;;;;7.98;62.75;99498.09;5110390;28;20106;-24
2023/03/16 08:58:51;;;;;;;6.60;3.50;;;;;;;8.14;62.77;99482.69;5112150;28;20500;-24
2023/03/16 09:01:18;;;;;;;12.93;5.28;;;;;;;8.26;62.17;99486.25;5094111;28;20036;-26
2023/03/16 09:03:47;;;;;;;7.55;4.35;;;;;;;8.05;61.61;99487.47;5093587;28;20513;-24
2023/03/16 09:06:14;;;;;;;3.17;1.73;;;;;;;8.08;61.16;99488.88;5093833;28;20509;-27
2023/03/16 09:08:40;;;;;;;4.43;1.92;;;;;;;8.14;62.05;99494.09;5093497;28;20034;-27
2023/03/16 09:11:09;;;;;;;7.93;3.58;;;;;;;8.08;60.65;99494.16;5093872;28;20114;-24
2023/03/16 09:13:37;;;;;;;3.03;1.50;;;;;;;8.16;60.51;99480.63;5093862;28;20107;-27
2023/03/16 09:16:03;;;;;;;2.25;1.10;;;;;;;8.18;59.54;99491.84;5112087;28;20028;-23
2023/03/16 09:18:29;;;;;;;7.72;3.50;;;;;;;8.15;60.00;99494.91;5111839;28;20097;-25
2023/03/16 09:21:02;;;;;;;7.05;2.85;;;;;;;8.24;59.73;99496.28;5093525;28;20019;-27
2023/03/16 09:23:29;;;;;;;4.32;1.85;;;;;;;8.33;61.00;99487.00;5111487;28;20071;-25
2023/03/16 09:26:02;;;;;;;4.35;1.90;;;;;;;8.33;59.85;99491.50;5111598;28;20092;-26
2023/03/16 09:28:30;;;;;;;4.95;1.60;;;;;;;8.26;60.24;99480.94;5093619;28;20486;-25
2023/03/16 09:30:59;;;;;;;5.40;1.92;;;;;;;8.60;61.07;99494.75;5093332;28;20024;-26
2023/03/16 09:33:27;;;;;;;2.05;1.10;;;;;;;8.53;58.65;99483.38;5093189;28;20032;-26
2023/03/16 09:35:54;;;;;;;2.20;1.23;;;;;;;8.80;59.37;99495.34;5093288;28;20026;-24
2023/03/16 09:38:20;;;;;;;4.95;2.17;;;;;;;8.93;59.20;99490.91;5093455;28;20024;-25
2023/03/16 09:40:51;;;;;;;1.58;1.02;;;;;;;9.03;58.53;99504.50;5111542;28;20034;-24
2023/03/16 09:43:48;;;;;;;2.22;1.20;;;;;;;9.30;58.29;99502.38;5093145;28;20172;-24
2023/03/16 09:46:35;;;;;;;1.90;1.10;;;;;;;9.38;57.70;99499.38;5111539;28;20050;-25
2023/03/16 09:49:02;;;;;;;2.65;1.40;;;;;;;9.35;57.36;99510.47;5093242;28;20108;-23
2023/03/16 09:51:37;;;;;;;2.63;1.05;;;;;;;9.20;57.76;99508.22;5093122;28;20117;-25
2023/03/16 09:54:14;;;;;;;2.45;1.40;;;;;;;9.18;56.62;99493.50;5111257;28;20035;-24
2023/03/16 09:56:42;;;;;;;3.35;1.98;;;;;;;9.19;57.14;99490.63;5092975;28;20027;-23
2023/03/16 09:59:12;;;;;;;7.47;3.13;;;;;;;9.44;57.52;99509.13;5092086;28;20528;-25
2023/03/16 10:01:43;;;;;;;14.45;6.40;;;;;;;9.71;56.25;99513.28;5092730;28;20043;-25
2023/03/16 10:04:26;;;;;;;3.80;1.65;;;;;;;9.63;55.92;99493.13;5092799;28;20027;-24
2023/03/16 10:07:22;;;;;;;2.08;1.10;;;;;;;9.83;55.77;99506.16;5092452;28;20023;-27
2023/03/16 10:10:05;;;;;;;6.15;1.92;;;;;;;10.31;55.87;99521.19;5092477;28;20509;-23
2023/03/16 10:12:37;;;;;;;2.95;1.50;;;;;;;10.76;54.88;99514.47;5092788;28;20038;-27
2023/03/16 10:15:16;;;;;;;1.65;1.00;;;;;;;10.50;53.37;99510.44;5092453;28;20031;-24
2023/03/16 10:18:23;;;;;;;1.85;1.20;;;;;;;10.85;53.14;99515.75;5092214;28;20030;-22
2023/03/16 10:20:51;;;;;;;2.33;1.50;;;;;;;10.69;53.91;99517.28;5110923;28;20023;-21
2023/03/16 10:23:20;;;;;;;1.63;1.00;;;;;;;10.43;53.26;99516.69;5110213;28;20362;-26
2023/03/16 10:25:55;;;;;;;4.63;2.10;;;;;;;11.01;53.05;99519.53;5110698;28;20028;-23
2023/03/16 10:28:27;;;;;;;2.35;1.20;;;;;;;10.90;53.56;99526.53;5092430;28;20071;-27
2023/03/16 10:30:55;;;;;;;2.42;1.30;;;;;;;10.74;52.46;99530.72;5110692;28;20038;-23
2023/03/16 10:33:28;;;;;;;3.15;1.40;;;;;;;10.71;52.17;99528.53;5110361;28;20050;-23
2023/03/16 10:35:56;;;;;;;2.25;1.27;;;;;;;10.71;52.18;99523.19;5091697;28;20123;-24
2023/03/16 10:38:27;;;;;;;;;;;;;;;11.06;52.44;99527.66;5111081;28;20495;-23
2023/03/16 10:40:53;;;;;;;2.10;1.10;;;;;;;10.78;51.49;99521.19;5110430;28;19930;-23
2023/03/16 10:43:19;;;;;;;3.88;1.60;;;;;;;10.82;51.50;99525.03;5110603;28;20475;-23
2023/03/16 10:45:46;;;;;;;3.55;1.77;;;;;;;11.21;52.52;99519.97;5110237;28;20471;-23
2023/03/16 10:48:18;;;;;;;1.92;1.15;;;;;;;10.97;51.72;99526.41;5091757;28;20036;-23
2023/03/16 10:50:49;;;;;;;2.92;1.75;;;;;;;11.07;51.44;99523.94;5091832;28;20057;-23
2023/03/16 10:53:43;;;;;;;3.88;1.90;;;;;;;10.90;52.34;99520.38;5092104;28;20035;-24
2023/03/16 10:56:39;;;;;;;3.88;1.88;;;;;;;10.87;50.72;99516.34;5086178;28;20429;-23
2023/03/16 10:59:16;;;;;;;2.22;1.27;;;;;;;11.11;50.48;99521.63;5088315;28;20121;-23
2023/03/16 11:01:47;;;;;;;2.65;1.20;;;;;;;10.79;49.61;99509.50;5091389;28;20108;-25
2023/03/16 11:04:16;;;;;;;3.80;1.58;;;;;;;10.96;50.02;99504.25;5109956;28;20023;-25
2023/03/16 11:06:55;;;;;;;5.60;1.80;;;;;;;10.96;48.77;99522.91;5091407;28;20031;-25
2023/03/16 11:09:32;;;;;;;2.83;1.17;;;;;;;11.09;49.36;99507.69;5091198;28;20511;-24
2023/03/16 11:11:59;;;;;;;4.35;2.00;;;;;;;10.97;48.74;99497.88;5091427;28;20046;-24
2023/03/16 11:14:27;;;;;;;2.67;1.80;;;;;;;11.14;49.01;99511.28;5091452;28;20091;-27
2023/03/16 11:17:33;;;;;;;1.85;1.08;;;;;;;11.05;48.84;99518.03;5091312;28;20042;-23
2023/03/16 11:20:16;;;;;;;6.97;2.53;;;;;;;11.14;49.23;99495.28;5108218;28;20104;-23
2023/03/16 11:22:44;;;;;;;3.30;1.50;;;;;;;11.17;48.58;99510.81;5109418;28;20044;-23
2023/03/16 11:25:15;;;;;;;3.40;2.00;;;;;;;11.60;48.99;99509.50;5091040;28;20122;-23
2023/03/16 11:28:10;;;;;;;3.60;1.70;;;;;;;11.63;47.72;99517.03;5090857;28;20039;-23
2023/03/16 11:30:50;;;;;;;2.80;1.40;;;;;;;11.20;48.04;99505.00;5091259;28;20089;-29
2023/03/16 11:33:16;;;;;;;3.75;1.70;;;;;;;10.98;49.73;99493.34;5109254;28;20858;-24
2023/03/16 11:35:44;;;;;;;2.75;1.40;;;;;;;11.40;48.54;99503.78;5109187;28;20016;-23
2023/03/16 11:38:14;;;;;;;;;;;;;;;11.49;47.55;99507.69;5109447;28;20031;-32
2023/03/16 11:40:59;;;;;;;3.25;1.48;;;;;;;11.34;47.32;99512.72;5109057;28;19908;-24
2023/03/16 11:43:39;;;;;;;2.42;1.50;;;;;;;11.49;47.43;99507.69;5090793;28;20023;-28